Time;durP1;ratioP1;P1;durP2;ratioP2;P2;SDS_P1;SDS_P2;PMS_P1;PMS_P2;Temp;Humidity;BMP_temperature;BMP_pressure;BME280_temperature;BME280_humidity;BME280_pressure;Samples;Min_cycle;Max_cycle;Signal;HPM_P1;HPM_P2
2024/03/21 00:00:44;;;;;;;;;;;7.30;99.90;;;;;;2067708;28;19917;-76
2024/03/21 00:01:45;;;;;;;;;;;7.30;99.90;;;;;;2067701;28;19979;-76
2024/03/21 00:02:48;;;;;;;;;;;7.30;99.90;;;;;;2067529;28;20020;-77
2024/03/21 00:03:48;;;;;;;;;;;7.30;99.90;;;;;;2066695;28;20383;-77
2024/03/21 00:04:49;;;;;;;;;;;7.30;99.90;;;;;;2066884;28;19944;-78
2024/03/21 00:05:49;;;;;;;;;;;7.30;99.90;;;;;;2067071;28;19921;-78
2024/03/21 00:06:50;;;;;;;;;;;7.30;99.90;;;;;;2066997;28;19914;-77
2024/03/21 00:07:51;;;;;;;;;;;7.30;99.90;;;;;;2067749;28;19920;-78
2024/03/21 00:08:51;;;;;;;;;;;7.20;99.90;;;;;;2067454;28;19921;-76
2024/03/21 00:09:52;;;;;;;;;;;7.20;99.90;;;;;;2067612;28;20260;-78
2024/03/21 00:10:52;;;;;;;;;;;7.20;99.90;;;;;;2067019;28;19925;-77
2024/03/21 00:11:53;;;;;;;;;;;7.20;99.90;;;;;;2067052;28;20312;-76
2024/03/21 00:12:53;;;;;;;;;;;7.20;99.90;;;;;;2067316;28;19918;-77
2024/03/21 00:13:54;;;;;;;;;;;7.20;99.90;;;;;;2067481;28;20452;-76
2024/03/21 00:14:54;;;;;;;;;;;7.30;99.90;;;;;;2067926;28;19949;-78
2024/03/21 00:15:55;;;;;;;;;;;7.20;99.90;;;;;;2067332;28;20387;-78
2024/03/21 00:16:55;;;;;;;;;;;7.20;99.90;;;;;;2067740;28;20017;-78
2024/03/21 00:17:56;;;;;;;;;;;7.20;99.90;;;;;;2068826;28;20305;-78
2024/03/21 00:18:56;;;;;;;;;;;7.20;99.90;;;;;;2070817;28;20034;-78
2024/03/21 00:19:56;;;;;;;;;;;7.20;99.90;;;;;;2067505;28;19933;-78
2024/03/21 00:20:57;;;;;;;;;;;7.20;99.90;;;;;;2067609;28;20391;-78
2024/03/21 00:21:57;;;;;;;;;;;7.20;99.90;;;;;;2067467;28;19940;-78
2024/03/21 00:22:58;;;;;;;;;;;7.20;99.90;;;;;;2067430;28;20466;-78
2024/03/21 00:23:59;;;;;;;;;;;7.20;99.90;;;;;;2067698;28;19913;-78
2024/03/21 00:24:59;;;;;;;;;;;7.20;99.90;;;;;;2067588;28;20336;-77
2024/03/21 00:26:00;;;;;;;;;;;7.20;99.90;;;;;;2066611;28;19922;-77
2024/03/21 00:27:01;;;;;;;;;;;7.20;99.90;;;;;;2058407;28;19941;-78
2024/03/21 00:28:01;;;;;;;;;;;7.20;99.90;;;;;;2066512;28;19922;-77
2024/03/21 00:29:04;;;;;;;;;;;7.20;99.90;;;;;;2067303;28;19921;-77
2024/03/21 00:30:05;;;;;;;;;;;7.10;99.90;;;;;;2066772;28;19929;-78
2024/03/21 00:31:05;;;;;;;;;;;7.20;99.90;;;;;;2064637;28;19917;-77
2024/03/21 00:32:06;;;;;;;;;;;7.10;99.90;;;;;;2058581;28;20001;-78
2024/03/21 00:33:06;;;;;;;;;;;7.10;99.90;;;;;;2058575;28;20270;-79
2024/03/21 00:34:08;;;;;;;;;;;7.10;99.90;;;;;;2067127;28;19925;-76
2024/03/21 00:35:09;;;;;;;;;;;7.10;99.90;;;;;;2067023;28;20270;-79
2024/03/21 00:36:09;;;;;;;;;;;7.10;99.90;;;;;;2067104;28;19918;-77
2024/03/21 00:37:10;;;;;;;;;;;7.10;99.90;;;;;;2067406;28;19913;-79
2024/03/21 00:38:10;;;;;;;;;;;7.10;99.90;;;;;;2067106;28;20278;-79
2024/03/21 00:39:15;;;;;;;;;;;7.10;99.90;;;;;;2067131;28;20010;-76
2024/03/21 00:40:15;;;;;;;;;;;7.10;99.90;;;;;;2067531;28;19913;-82
2024/03/21 00:41:16;;;;;;;;;;;7.00;99.90;;;;;;2068838;28;19921;-83
2024/03/21 00:42:16;;;;;;;;;;;7.00;99.90;;;;;;2068420;28;19918;-80
2024/03/21 00:43:17;;;;;;;;;;;7.00;99.90;;;;;;2068890;28;19921;-79
2024/03/21 00:44:17;;;;;;;;;;;7.00;99.90;;;;;;2075894;28;19917;-80
2024/03/21 00:45:18;;;;;;;;;;;7.00;99.90;;;;;;2069785;28;20000;-80
2024/03/21 00:46:18;;;;;;;;;;;7.00;99.90;;;;;;2063713;28;20545;-79
2024/03/21 00:47:19;;;;;;;;;;;7.00;99.90;;;;;;2063226;28;20049;-79
2024/03/21 00:48:19;;;;;;;;;;;6.90;99.90;;;;;;2068185;28;20375;-80
2024/03/21 00:49:20;;;;;;;;;;;6.90;99.90;;;;;;2069580;28;19914;-80
2024/03/21 00:50:20;;;;;;;;;;;6.90;99.90;;;;;;2068742;28;20003;-80
2024/03/21 00:51:21;;;;;;;;;;;6.90;99.90;;;;;;2063287;28;19953;-80
2024/03/21 00:52:21;;;;;;;;;;;6.90;99.90;;;;;;2063076;28;19999;-80
2024/03/21 00:53:22;;;;;;;;;;;6.90;99.90;;;;;;2067634;28;19917;-80
2024/03/21 00:54:22;;;;;;;;;;;6.80;99.90;;;;;;2071857;28;20477;-80
2024/03/21 00:55:23;;;;;;;;;;;6.80;99.90;;;;;;2067216;28;19918;-80
2024/03/21 00:56:23;;;;;;;;;;;6.80;99.90;;;;;;2067959;28;19913;-80
2024/03/21 00:57:25;;;;;;;;;;;6.80;99.90;;;;;;2068472;28;19921;-80
2024/03/21 00:58:25;;;;;;;;;;;6.80;99.90;;;;;;2068368;28;19937;-80
2024/03/21 00:59:26;;;;;;;;;;;6.80;99.90;;;;;;2068286;28;19919;-80
2024/03/21 01:00:26;;;;;;;;;;;6.80;99.90;;;;;;2068300;28;19925;-80
2024/03/21 01:01:27;;;;;;;;;;;6.80;99.90;;;;;;2068011;28;19921;-80
2024/03/21 01:02:28;;;;;;;;;;;6.80;99.90;;;;;;2068214;28;20020;-80
2024/03/21 01:03:29;;;;;;;;;;;6.80;99.90;;;;;;2064502;28;19936;-80
2024/03/21 01:04:29;;;;;;;;;;;6.80;99.90;;;;;;2066692;28;19921;-81
2024/03/21 01:05:32;;;;;;;;;;;6.80;99.90;;;;;;2067646;28;20015;-80
2024/03/21 01:06:32;;;;;;;;;;;6.70;99.90;;;;;;2063702;28;20392;-80
2024/03/21 01:07:33;;;;;;;;;;;6.70;99.90;;;;;;2067882;28;19917;-80
2024/03/21 01:08:33;;;;;;;;;;;6.70;99.90;;;;;;2067870;28;19918;-80
2024/03/21 01:09:34;;;;;;;;;;;6.70;99.90;;;;;;2069271;28;20346;-78
2024/03/21 01:10:34;;;;;;;;;;;6.70;99.90;;;;;;2069929;28;19913;-79
2024/03/21 01:11:35;;;;;;;;;;;6.70;99.90;;;;;;2069806;28;20302;-79
2024/03/21 01:12:35;;;;;;;;;;;6.70;99.90;;;;;;2069598;28;20383;-80
2024/03/21 01:13:36;;;;;;;;;;;6.70;99.90;;;;;;2069711;28;19967;-79
2024/03/21 01:14:36;;;;;;;;;;;6.60;99.90;;;;;;2069306;28;19918;-79
2024/03/21 01:15:37;;;;;;;;;;;6.70;99.90;;;;;;2060867;28;20376;-81
2024/03/21 01:16:37;;;;;;;;;;;6.70;99.90;;;;;;2068867;28;19960;-81
2024/03/21 01:17:38;;;;;;;;;;;6.60;99.90;;;;;;2069623;28;20364;-78
2024/03/21 01:18:38;;;;;;;;;;;6.60;99.90;;;;;;2069352;28;19960;-80
2024/03/21 01:19:39;;;;;;;;;;;6.60;99.90;;;;;;2068890;28;20292;-80
2024/03/21 01:20:40;;;;;;;;;;;6.60;99.90;;;;;;2069987;28;20379;-79
2024/03/21 01:21:41;;;;;;;;;;;6.60;99.90;;;;;;2069344;28;19971;-79
2024/03/21 01:22:41;;;;;;;;;;;6.60;99.90;;;;;;2069570;28;20378;-79
2024/03/21 01:23:42;;;;;;;;;;;6.50;99.90;;;;;;2069314;28;19960;-81
2024/03/21 01:24:48;;;;;;;;;;;6.60;99.90;;;;;;2069759;28;19956;-80
2024/03/21 01:25:49;;;;;;;;;;;6.60;99.90;;;;;;2069361;28;20375;-79
2024/03/21 01:26:50;;;;;;;;;;;6.50;99.90;;;;;;2068785;28;19918;-79
2024/03/21 01:27:54;;;;;;;;;;;6.50;99.90;;;;;;2070081;28;19917;-80
2024/03/21 01:28:55;;;;;;;;;;;6.50;99.90;;;;;;2069051;28;19921;-80
2024/03/21 01:29:55;;;;;;;;;;;6.50;99.90;;;;;;2069661;28;19917;-80
2024/03/21 01:30:59;;;;;;;;;;;6.50;99.90;;;;;;2063117;28;20164;-80
2024/03/21 01:32:00;;;;;;;;;;;6.50;99.90;;;;;;2054046;28;20343;-79
2024/03/21 01:33:03;;;;;;;;;;;6.50;99.90;;;;;;2061471;28;19918;-79
2024/03/21 01:34:03;;;;;;;;;;;6.50;99.90;;;;;;2070836;28;20000;-81
2024/03/21 01:35:06;;;;;;;;;;;6.50;99.90;;;;;;2069083;28;19913;-81
2024/03/21 01:36:07;;;;;;;;;;;6.50;99.90;;;;;;2060627;28;20431;-81
2024/03/21 01:37:08;;;;;;;;;;;6.50;99.90;;;;;;2052715;28;20056;-81
2024/03/21 01:38:08;;;;;;;;;;;6.50;99.90;;;;;;2065300;28;19953;-79
2024/03/21 01:39:09;;;;;;;;;;;6.40;99.90;;;;;;2068881;28;20033;-80
2024/03/21 01:40:11;;;;;;;;;;;6.40;99.90;;;;;;2060593;28;19980;-80
2024/03/21 01:41:11;;;;;;;;;;;6.40;99.90;;;;;;2068780;28;20357;-80
2024/03/21 01:42:16;;;;;;;;;;;6.40;99.90;;;;;;2071059;28;19917;-81
2024/03/21 01:43:24;;;;;;;;;;;6.40;99.90;;;;;;2064752;28;20075;-78
2024/03/21 01:44:24;;;;;;;;;;;6.30;99.90;;;;;;2053444;28;19914;-79
2024/03/21 01:45:26;;;;;;;;;;;6.30;99.90;;;;;;2052769;28;19941;-80
2024/03/21 01:46:27;;;;;;;;;;;6.30;99.90;;;;;;2060781;28;20293;-79
2024/03/21 01:47:27;;;;;;;;;;;6.30;99.90;;;;;;2071274;28;19913;-80
2024/03/21 01:48:28;;;;;;;;;;;6.30;99.90;;;;;;2070870;28;19937;-79
2024/03/21 01:49:29;;;;;;;;;;;6.30;99.90;;;;;;2068710;28;20202;-81
2024/03/21 01:50:29;;;;;;;;;;;6.30;99.90;;;;;;2069374;28;19927;-81
2024/03/21 01:51:30;;;;;;;;;;;6.30;99.90;;;;;;2068256;28;19917;-80
2024/03/21 01:52:30;;;;;;;;;;;6.30;99.90;;;;;;2068949;28;19913;-80
2024/03/21 01:53:32;;;;;;;;;;;6.30;99.90;;;;;;2069716;28;19922;-80
2024/03/21 01:54:33;;;;;;;;;;;6.20;99.90;;;;;;2069720;28;19971;-81
2024/03/21 01:55:33;;;;;;;;;;;6.20;99.90;;;;;;2069860;28;20027;-80
2024/03/21 01:56:37;;;;;;;;;;;6.20;99.90;;;;;;2069643;28;20036;-79
2024/03/21 01:57:37;;;;;;;;;;;6.20;99.90;;;;;;2069533;28;19917;-80
2024/03/21 01:58:38;;;;;;;;;;;6.20;99.90;;;;;;2066132;28;19992;-79
2024/03/21 01:59:38;;;;;;;;;;;6.20;99.90;;;;;;2073700;28;19948;-79
2024/03/21 02:00:39;;;;;;;;;;;6.20;99.90;;;;;;2068629;28;20420;-77
2024/03/21 02:01:40;;;;;;;;;;;6.20;99.90;;;;;;2068881;28;19929;-80
2024/03/21 02:02:40;;;;;;;;;;;6.20;99.90;;;;;;2069021;28;19924;-79
2024/03/21 02:03:41;;;;;;;;;;;6.20;99.90;;;;;;2069518;28;19918;-79
2024/03/21 02:04:42;;;;;;;;;;;6.20;99.90;;;;;;2069705;28;19918;-80
2024/03/21 02:05:42;;;;;;;;;;;6.20;99.90;;;;;;2073746;28;20372;-80
2024/03/21 02:06:43;;;;;;;;;;;6.20;99.90;;;;;;2068678;28;20016;-79
2024/03/21 02:07:43;;;;;;;;;;;6.10;99.90;;;;;;2068626;28;20091;-79
2024/03/21 02:08:44;;;;;;;;;;;6.20;99.90;;;;;;2069074;28;20400;-80
2024/03/21 02:09:45;;;;;;;;;;;6.10;99.90;;;;;;2069138;28;19948;-80
2024/03/21 02:10:45;;;;;;;;;;;6.10;99.90;;;;;;2068745;28;19917;-81
2024/03/21 02:11:46;;;;;;;;;;;6.20;99.90;;;;;;2069138;28;20295;-80
2024/03/21 02:12:46;;;;;;;;;;;6.20;99.90;;;;;;2069004;28;19924;-80
2024/03/21 02:13:47;;;;;;;;;;;6.20;99.90;;;;;;2069332;28;20428;-80
2024/03/21 02:14:50;;;;;;;;;;;6.20;99.90;;;;;;2069374;28;20235;-79
2024/03/21 02:15:50;;;;;;;;;;;6.10;99.90;;;;;;2069107;28;19983;-79
2024/03/21 02:16:51;;;;;;;;;;;6.20;99.90;;;;;;2069000;28;20590;-80
2024/03/21 02:17:51;;;;;;;;;;;6.10;99.90;;;;;;2068706;28;20006;-79
2024/03/21 02:18:52;;;;;;;;;;;6.10;99.90;;;;;;2070213;28;19917;-79
2024/03/21 02:19:52;;;;;;;;;;;6.10;99.90;;;;;;2068649;28;20379;-79
2024/03/21 02:20:53;;;;;;;;;;;6.10;99.90;;;;;;2067050;28;19940;-80
2024/03/21 02:23:13;;;;;;;;;;;6.10;99.90;;;;;;2068662;28;19944;-79
2024/03/21 02:24:13;;;;;;;;;;;6.00;99.90;;;;;;2068890;28;19936;-79
2024/03/21 02:25:14;;;;;;;;;;;6.00;99.90;;;;;;2068341;28;19918;-79
2024/03/21 02:26:14;;;;;;;;;;;6.00;99.90;;;;;;2068131;28;20768;-81
2024/03/21 02:27:15;;;;;;;;;;;6.00;99.90;;;;;;2060536;28;20388;-79
2024/03/21 02:28:15;;;;;;;;;;;6.00;99.90;;;;;;2068404;28;19960;-80
2024/03/21 02:29:16;;;;;;;;;;;6.00;99.90;;;;;;2069167;28;19918;-80
2024/03/21 02:30:16;;;;;;;;;;;6.00;99.90;;;;;;2069102;28;19917;-80
2024/03/21 02:31:17;;;;;;;;;;;5.90;99.90;;;;;;2065415;28;19923;-80
2024/03/21 02:32:18;;;;;;;;;;;5.90;99.90;;;;;;2068379;28;20355;-81
2024/03/21 02:33:19;;;;;;;;;;;5.90;99.90;;;;;;2069065;28;20039;-80
2024/03/21 02:34:20;;;;;;;;;;;5.90;99.90;;;;;;2069965;28;19913;-80
2024/03/21 02:35:20;;;;;;;;;;;5.90;99.90;;;;;;2069353;28;19979;-80
2024/03/21 02:36:21;;;;;;;;;;;5.90;99.90;;;;;;2070117;28;20130;-79
2024/03/21 02:37:21;;;;;;;;;;;5.90;99.90;;;;;;2073689;28;20377;-79
2024/03/21 02:38:22;;;;;;;;;;;5.90;99.90;;;;;;2069947;28;19924;-80
2024/03/21 02:39:23;;;;;;;;;;;5.80;99.90;;;;;;2070122;28;19917;-81
2024/03/21 02:40:23;;;;;;;;;;;5.80;99.90;;;;;;2071282;28;19913;-80
2024/03/21 02:41:24;;;;;;;;;;;5.90;99.90;;;;;;2071179;28;20016;-80
2024/03/21 02:42:24;;;;;;;;;;;5.90;99.90;;;;;;2070700;28;19924;-80
2024/03/21 02:43:25;;;;;;;;;;;5.90;99.90;;;;;;2065562;28;19993;-81
2024/03/21 02:44:25;;;;;;;;;;;5.90;99.90;;;;;;2061987;28;19914;-80
2024/03/21 02:45:26;;;;;;;;;;;5.80;99.90;;;;;;2066892;28;19933;-79
2024/03/21 02:46:26;;;;;;;;;;;5.80;99.90;;;;;;2069740;28;19920;-81
2024/03/21 02:47:27;;;;;;;;;;;5.80;99.90;;;;;;2069596;28;19913;-78
2024/03/21 02:48:27;;;;;;;;;;;5.80;99.90;;;;;;2061608;28;19914;-79
2024/03/21 02:49:29;;;;;;;;;;;5.80;99.90;;;;;;2068928;28;19925;-79
2024/03/21 02:50:30;;;;;;;;;;;5.80;99.90;;;;;;2069307;28;19972;-79
2024/03/21 02:51:30;;;;;;;;;;;5.90;99.90;;;;;;2068532;28;19917;-80
2024/03/21 02:52:31;;;;;;;;;;;5.80;99.90;;;;;;2068639;28;19918;-80
2024/03/21 02:53:31;;;;;;;;;;;5.80;99.90;;;;;;2068206;28;19920;-81
2024/03/21 02:54:32;;;;;;;;;;;5.80;99.90;;;;;;2068718;28;20191;-81
2024/03/21 02:55:32;;;;;;;;;;;5.80;99.90;;;;;;2068951;28;19913;-80
2024/03/21 02:56:33;;;;;;;;;;;5.80;99.90;;;;;;2068381;28;19923;-81
2024/03/21 02:57:33;;;;;;;;;;;5.80;99.90;;;;;;2064340;28;19931;-80
2024/03/21 02:58:34;;;;;;;;;;;5.80;99.90;;;;;;2068609;28;19932;-81
2024/03/21 02:59:35;;;;;;;;;;;5.70;99.90;;;;;;2069162;28;19941;-79
2024/03/21 03:00:35;;;;;;;;;;;5.70;99.90;;;;;;2068114;28;19921;-81
2024/03/21 03:01:35;;;;;;;;;;;5.80;99.90;;;;;;2069314;28;19953;-79
2024/03/21 03:02:36;;;;;;;;;;;5.80;99.90;;;;;;2068980;28;19914;-81
2024/03/21 03:03:37;;;;;;;;;;;5.80;99.90;;;;;;2069670;28;19913;-81
2024/03/21 03:04:37;;;;;;;;;;;5.70;99.90;;;;;;2072976;28;19920;-80
2024/03/21 03:05:41;;;;;;;;;;;5.70;99.90;;;;;;2068238;28;20396;-79
2024/03/21 03:06:41;;;;;;;;;;;5.70;99.90;;;;;;2068411;28;19914;-81
2024/03/21 03:07:42;;;;;;;;;;;5.70;99.90;;;;;;2068924;28;19942;-81
2024/03/21 03:08:42;;;;;;;;;;;5.70;99.90;;;;;;2068279;28;20307;-80
2024/03/21 03:09:43;;;;;;;;;;;5.70;99.90;;;;;;2068300;28;19921;-81
2024/03/21 03:10:43;;;;;;;;;;;5.70;99.90;;;;;;2068793;28;19917;-79
2024/03/21 03:11:44;;;;;;;;;;;5.70;99.90;;;;;;2069177;28;19923;-81
2024/03/21 03:12:44;;;;;;;;;;;5.70;99.90;;;;;;2069875;28;19918;-81
2024/03/21 03:13:45;;;;;;;;;;;5.70;99.90;;;;;;2069984;28;19918;-80
2024/03/21 03:14:45;;;;;;;;;;;5.70;99.90;;;;;;2069671;28;19971;-80
2024/03/21 03:15:45;;;;;;;;;;;5.70;99.90;;;;;;2069273;28;19917;-80
2024/03/21 03:16:46;;;;;;;;;;;5.80;99.90;;;;;;2068934;28;20450;-79
2024/03/21 03:17:46;;;;;;;;;;;5.80;99.90;;;;;;2069794;28;19921;-80
2024/03/21 03:18:47;;;;;;;;;;;5.70;99.90;;;;;;2070420;28;20439;-80
2024/03/21 03:19:47;;;;;;;;;;;5.70;99.90;;;;;;2070523;28;20115;-79
2024/03/21 03:20:48;;;;;;;;;;;5.70;99.90;;;;;;2067836;28;19909;-80
2024/03/21 03:21:48;;;;;;;;;;;5.70;99.90;;;;;;2071527;28;20414;-80
2024/03/21 03:22:49;;;;;;;;;;;5.70;99.90;;;;;;2072283;28;19925;-80
2024/03/21 03:23:50;;;;;;;;;;;5.70;99.90;;;;;;2072635;28;19914;-80
2024/03/21 03:24:51;;;;;;;;;;;5.80;99.90;;;;;;2076348;28;20144;-80
2024/03/21 03:25:51;;;;;;;;;;;5.80;99.90;;;;;;2071693;28;20000;-80
2024/03/21 03:26:52;;;;;;;;;;;5.80;99.90;;;;;;2073351;28;19921;-80
2024/03/21 03:27:54;;;;;;;;;;;5.80;99.90;;;;;;2074308;28;20299;-81
2024/03/21 03:28:55;;;;;;;;;;;5.80;99.90;;;;;;2075210;28;19917;-81
2024/03/21 03:29:55;;;;;;;;;;;5.80;99.90;;;;;;2074444;28;19967;-81
2024/03/21 03:30:56;;;;;;;;;;;5.90;99.90;;;;;;2071043;28;19919;-80
2024/03/21 03:32:01;;;;;;;;;;;5.80;99.90;;;;;;2074067;28;19924;-81
2024/03/21 03:35:41;;;;;;;;;;;5.90;99.90;;;;;;2074987;28;19921;-81
2024/03/21 03:36:43;;;;;;;;;;;6.00;99.90;;;;;;2074626;28;19917;-80
2024/03/21 03:37:44;;;;;;;;;;;6.00;99.90;;;;;;2073912;28;20124;-80
2024/03/21 03:38:45;;;;;;;;;;;6.00;99.90;;;;;;2073494;28;19992;-80
2024/03/21 03:39:45;;;;;;;;;;;6.00;99.90;;;;;;2065732;28;19948;-81
2024/03/21 03:40:46;;;;;;;;;;;6.10;99.90;;;;;;2067137;28;19914;-81
2024/03/21 03:41:46;;;;;;;;;;;6.10;99.90;;;;;;2075921;28;19943;-81
2024/03/21 03:42:47;;;;;;;;;;;6.10;99.90;;;;;;2074893;28;19928;-81
2024/03/21 03:43:47;;;;;;;;;;;6.10;99.90;;;;;;2077469;28;19949;-80
2024/03/21 03:44:48;;;;;;;;;;;6.10;99.90;;;;;;2077072;28;19913;-80
2024/03/21 03:45:48;;;;;;;;;;;6.10;99.90;;;;;;2066947;28;19917;-81
2024/03/21 03:46:49;;;;;;;;;;;6.10;99.90;;;;;;2076023;28;19920;-78
2024/03/21 03:47:49;;;;;;;;;;;6.10;99.90;;;;;;2074009;28;19917;-80
2024/03/21 03:48:50;;;;;;;;;;;6.10;99.90;;;;;;2065825;28;20009;-79
2024/03/21 03:49:50;;;;;;;;;;;6.10;99.90;;;;;;2064385;28;20013;-80
2024/03/21 03:50:50;;;;;;;;;;;6.10;99.90;;;;;;2075330;28;19913;-79
2024/03/21 03:51:51;;;;;;;;;;;6.10;99.90;;;;;;2074930;28;19920;-79
2024/03/21 03:52:51;;;;;;;;;;;6.10;99.90;;;;;;2073800;28;20107;-79
2024/03/21 03:53:52;;;;;;;;;;;6.10;99.90;;;;;;2066276;28;20443;-79
2024/03/21 03:54:52;;;;;;;;;;;6.10;99.90;;;;;;2074294;28;19909;-79
2024/03/21 03:55:53;;;;;;;;;;;6.10;99.90;;;;;;2073985;28;20330;-79
2024/03/21 03:56:53;;;;;;;;;;;6.20;99.90;;;;;;2071741;28;20346;-77
2024/03/21 03:57:54;;;;;;;;;;;6.20;99.90;;;;;;2068363;28;19972;-71
2024/03/21 03:58:54;;;;;;;;;;;6.20;99.90;;;;;;2071488;28;19940;-75
2024/03/21 03:59:55;;;;;;;;;;;6.20;99.90;;;;;;2069579;28;19968;-77
2024/03/21 04:01:01;;;;;;;;;;;6.30;99.90;;;;;;2057476;28;19918;-78
2024/03/21 04:02:01;;;;;;;;;;;6.20;99.90;;;;;;2061872;28;20036;-76
2024/03/21 04:03:02;;;;;;;;;;;6.20;99.90;;;;;;2067166;28;19925;-78
2024/03/21 04:04:03;;;;;;;;;;;6.20;99.90;;;;;;2066799;28;19917;-78
2024/03/21 04:05:06;;;;;;;;;;;6.30;99.90;;;;;;2059239;28;19914;-77
2024/03/21 04:06:07;;;;;;;;;;;6.30;99.90;;;;;;2056046;28;20351;-77
2024/03/21 04:07:07;;;;;;;;;;;6.30;99.90;;;;;;2067987;28;19929;-77
2024/03/21 04:08:08;;;;;;;;;;;6.30;99.90;;;;;;2067474;28;20076;-79
2024/03/21 04:09:08;;;;;;;;;;;6.30;99.90;;;;;;2067396;28;20000;-78
2024/03/21 04:10:09;;;;;;;;;;;6.30;99.90;;;;;;2067935;28;20072;-76
2024/03/21 04:11:12;;;;;;;;;;;6.30;99.90;;;;;;2067265;28;19924;-79
2024/03/21 04:12:13;;;;;;;;;;;6.30;99.90;;;;;;2067046;28;20364;-76
2024/03/21 04:13:14;;;;;;;;;;;6.30;99.90;;;;;;2067517;28;19918;-76
2024/03/21 04:14:14;;;;;;;;;;;6.30;99.90;;;;;;2066898;28;19917;-76
2024/03/21 04:15:14;;;;;;;;;;;6.30;99.90;;;;;;2066983;28;20316;-76
2024/03/21 04:16:16;;;;;;;;;;;6.30;99.90;;;;;;2067634;28;19920;-78
2024/03/21 04:17:16;;;;;;;;;;;6.20;99.90;;;;;;2067450;28;20399;-76
2024/03/21 04:18:17;;;;;;;;;;;6.30;99.90;;;;;;2067853;28;19913;-77
2024/03/21 04:19:18;;;;;;;;;;;6.20;99.90;;;;;;2067492;28;20334;-77
2024/03/21 04:20:18;;;;;;;;;;;6.30;99.90;;;;;;2066820;28;19921;-78
2024/03/21 04:21:19;;;;;;;;;;;6.30;99.90;;;;;;2068704;28;19924;-77
2024/03/21 04:22:19;;;;;;;;;;;6.20;99.90;;;;;;2069533;28;19917;-77
2024/03/21 04:23:20;;;;;;;;;;;6.20;99.90;;;;;;2066850;28;20458;-76
2024/03/21 04:24:20;;;;;;;;;;;6.20;99.90;;;;;;2066628;28;19917;-76
2024/03/21 04:25:21;;;;;;;;;;;6.20;99.90;;;;;;2067642;28;19913;-77
2024/03/21 04:26:21;;;;;;;;;;;6.10;99.90;;;;;;2067598;28;20047;-76
2024/03/21 04:27:22;;;;;;;;;;;6.10;99.90;;;;;;2067413;28;19917;-77
2024/03/21 04:28:22;;;;;;;;;;;6.00;99.90;;;;;;2067111;28;19928;-77
2024/03/21 04:29:23;;;;;;;;;;;6.10;99.90;;;;;;2066432;28;19917;-77
2024/03/21 04:30:23;;;;;;;;;;;6.00;99.90;;;;;;2066788;28;19961;-76
2024/03/21 04:31:24;;;;;;;;;;;6.00;99.90;;;;;;2062946;28;20387;-77
2024/03/21 04:32:25;;;;;;;;;;;6.00;99.90;;;;;;2067431;28;19929;-78
2024/03/21 04:33:26;;;;;;;;;;;6.00;99.90;;;;;;2067321;28;20379;-78
2024/03/21 04:34:26;;;;;;;;;;;6.00;99.90;;;;;;2066914;28;20096;-78
2024/03/21 04:35:26;;;;;;;;;;;6.00;99.90;;;;;;2067550;28;20287;-78
2024/03/21 04:36:27;;;;;;;;;;;5.90;99.90;;;;;;2066509;28;19913;-78
2024/03/21 04:37:29;;;;;;;;;;;5.90;99.90;;;;;;2066505;28;19988;-77
2024/03/21 04:38:29;;;;;;;;;;;5.90;99.90;;;;;;2067152;28;20033;-76
2024/03/21 04:39:30;;;;;;;;;;;5.90;99.90;;;;;;2066380;28;19917;-78
2024/03/21 04:40:30;;;;;;;;;;;5.90;99.90;;;;;;2066824;28;19966;-78
2024/03/21 04:41:31;;;;;;;;;;;5.90;99.90;;;;;;2067276;28;19917;-77
2024/03/21 04:42:31;;;;;;;;;;;5.90;99.90;;;;;;2062962;28;19987;-76
2024/03/21 04:43:32;;;;;;;;;;;5.90;99.90;;;;;;2066613;28;20085;-76
2024/03/21 04:44:32;;;;;;;;;;;6.00;99.90;;;;;;2067401;28;20378;-77
2024/03/21 04:45:33;;;;;;;;;;;5.90;99.90;;;;;;2067163;28;20435;-76
2024/03/21 04:46:33;;;;;;;;;;;5.90;99.90;;;;;;2067053;28;19972;-76
2024/03/21 04:47:34;;;;;;;;;;;5.90;99.90;;;;;;2067149;28;20376;-76
2024/03/21 04:48:34;;;;;;;;;;;6.00;99.90;;;;;;2067293;28;20387;-76
2024/03/21 04:49:35;;;;;;;;;;;6.00;99.90;;;;;;2067041;28;19925;-76
2024/03/21 04:50:35;;;;;;;;;;;6.00;99.90;;;;;;2067427;28;20342;-77
2024/03/21 04:51:36;;;;;;;;;;;6.00;99.90;;;;;;2067234;28;19957;-77
2024/03/21 04:52:36;;;;;;;;;;;6.00;99.90;;;;;;2067122;28;20127;-77
2024/03/21 04:53:37;;;;;;;;;;;6.00;99.90;;;;;;2067294;28;20291;-77
2024/03/21 04:54:37;;;;;;;;;;;6.00;99.90;;;;;;2066541;28;19917;-77
2024/03/21 04:55:38;;;;;;;;;;;6.10;99.90;;;;;;2066371;28;20465;-75
2024/03/21 04:56:38;;;;;;;;;;;6.10;99.90;;;;;;2067140;28;20423;-77
2024/03/21 04:57:39;;;;;;;;;;;6.10;99.90;;;;;;2067191;28;19929;-76
2024/03/21 04:58:39;;;;;;;;;;;6.10;99.90;;;;;;2067084;28;20271;-76
2024/03/21 04:59:40;;;;;;;;;;;6.10;99.90;;;;;;2067288;28;19921;-76
2024/03/21 05:00:40;;;;;;;;;;;6.10;99.90;;;;;;2067258;28;19924;-76
2024/03/21 05:01:41;;;;;;;;;;;6.10;99.90;;;;;;2067070;28;19917;-77
2024/03/21 05:02:41;;;;;;;;;;;6.20;99.90;;;;;;2067067;28;19914;-77
2024/03/21 05:03:42;;;;;;;;;;;6.20;99.90;;;;;;2067042;28;19917;-76
2024/03/21 05:04:42;;;;;;;;;;;6.20;99.90;;;;;;2066217;28;19930;-77
2024/03/21 05:05:43;;;;;;;;;;;6.20;99.90;;;;;;2067187;28;19920;-77
2024/03/21 05:06:43;;;;;;;;;;;6.20;99.90;;;;;;2067234;28;20101;-77
2024/03/21 05:07:44;;;;;;;;;;;6.20;99.90;;;;;;2066660;28;20012;-78
2024/03/21 05:08:44;;;;;;;;;;;6.20;99.90;;;;;;2066723;28;19929;-77
2024/03/21 05:09:45;;;;;;;;;;;6.20;99.90;;;;;;2067406;28;20020;-77
2024/03/21 05:10:45;;;;;;;;;;;6.20;99.90;;;;;;2067438;28;19957;-76
2024/03/21 05:11:46;;;;;;;;;;;6.20;99.90;;;;;;2067298;28;20386;-77
2024/03/21 05:12:47;;;;;;;;;;;6.20;99.90;;;;;;2067676;28;19913;-77
2024/03/21 05:13:49;;;;;;;;;;;6.20;99.90;;;;;;2066971;28;19917;-76
2024/03/21 05:14:50;;;;;;;;;;;6.20;99.90;;;;;;2067189;28;19917;-76
2024/03/21 05:15:51;;;;;;;;;;;6.20;99.90;;;;;;2066843;28;19955;-77
2024/03/21 05:16:51;;;;;;;;;;;6.30;99.90;;;;;;2067318;28;20390;-76
2024/03/21 05:17:52;;;;;;;;;;;6.20;99.90;;;;;;2067177;28;19917;-76
2024/03/21 05:18:52;;;;;;;;;;;6.20;99.90;;;;;;2066217;28;19919;-77
2024/03/21 05:19:54;;;;;;;;;;;6.20;99.90;;;;;;2066301;28;20352;-77
2024/03/21 05:20:55;;;;;;;;;;;6.20;99.90;;;;;;2066308;28;19913;-76
2024/03/21 05:21:55;;;;;;;;;;;6.20;99.90;;;;;;2058377;28;19917;-76
2024/03/21 05:22:55;;;;;;;;;;;6.20;99.90;;;;;;2066571;28;19996;-76
2024/03/21 05:23:56;;;;;;;;;;;6.20;99.90;;;;;;2067077;28;20123;-76
2024/03/21 05:24:56;;;;;;;;;;;6.30;99.90;;;;;;2066871;28;20144;-76
2024/03/21 05:25:57;;;;;;;;;;;6.20;99.90;;;;;;2066708;28;19924;-76
2024/03/21 05:26:57;;;;;;;;;;;6.30;99.90;;;;;;2066811;28;19959;-76
2024/03/21 05:27:58;;;;;;;;;;;6.30;99.90;;;;;;2066524;28;19913;-76
2024/03/21 05:28:58;;;;;;;;;;;6.30;99.90;;;;;;2066270;28;19928;-76
2024/03/21 05:29:59;;;;;;;;;;;6.30;99.90;;;;;;2067146;28;19983;-71
2024/03/21 05:30:59;;;;;;;;;;;6.30;99.90;;;;;;2060794;28;20559;-71
2024/03/21 05:32:00;;;;;;;;;;;6.30;99.90;;;;;;2058212;28;20320;-71
2024/03/21 05:33:00;;;;;;;;;;;6.30;99.90;;;;;;2065480;28;19918;-71
2024/03/21 05:34:01;;;;;;;;;;;6.30;99.90;;;;;;2063955;28;19918;-71
2024/03/21 05:35:01;;;;;;;;;;;6.30;99.90;;;;;;2065942;28;20012;-70
2024/03/21 05:36:02;;;;;;;;;;;6.30;99.90;;;;;;2066228;28;19953;-71
2024/03/21 05:37:02;;;;;;;;;;;6.30;99.90;;;;;;2066596;28;19914;-71
2024/03/21 05:38:03;;;;;;;;;;;6.40;99.90;;;;;;2066144;28;19924;-71
2024/03/21 05:39:05;;;;;;;;;;;6.30;99.90;;;;;;2066118;28;20407;-71
2024/03/21 05:40:05;;;;;;;;;;;6.40;99.90;;;;;;2050309;28;20181;-71
2024/03/21 05:41:06;;;;;;;;;;;6.40;99.90;;;;;;2049887;28;19914;-72
2024/03/21 05:42:07;;;;;;;;;;;6.40;99.90;;;;;;2064670;28;19917;-72
2024/03/21 05:43:07;;;;;;;;;;;6.40;99.90;;;;;;2058065;28;20031;-71
2024/03/21 05:44:08;;;;;;;;;;;6.40;99.90;;;;;;2066406;28;19996;-72
2024/03/21 05:45:08;;;;;;;;;;;6.40;99.90;;;;;;2066871;28;19914;-72
2024/03/21 05:46:09;;;;;;;;;;;6.50;99.90;;;;;;2066662;28;19917;-71
2024/03/21 05:47:20;;;;;;;;;;;6.50;99.90;;;;;;2066469;28;19924;-72
2024/03/21 05:48:20;;;;;;;;;;;6.50;99.90;;;;;;2066209;28;19925;-72
2024/03/21 05:49:20;;;;;;;;;;;6.60;99.90;;;;;;2066325;28;19952;-72
2024/03/21 05:50:21;;;;;;;;;;;6.50;99.90;;;;;;2067297;28;20391;-72
2024/03/21 05:51:22;;;;;;;;;;;6.60;99.90;;;;;;2067007;28;19914;-71
2024/03/21 05:52:22;;;;;;;;;;;6.60;99.90;;;;;;2066335;28;19914;-72
2024/03/21 05:53:23;;;;;;;;;;;6.60;99.90;;;;;;2066707;28;19964;-72
2024/03/21 05:54:23;;;;;;;;;;;6.60;99.90;;;;;;2066607;28;19943;-71
2024/03/21 05:55:24;;;;;;;;;;;6.60;99.90;;;;;;2059865;28;20302;-71
2024/03/21 05:56:24;;;;;;;;;;;6.70;99.90;;;;;;2068007;28;19918;-71
2024/03/21 05:57:25;;;;;;;;;;;6.70;99.90;;;;;;2068705;28;19944;-71
2024/03/21 05:58:25;;;;;;;;;;;6.70;99.90;;;;;;2067968;28;19924;-71
2024/03/21 05:59:26;;;;;;;;;;;6.70;99.90;;;;;;2068229;28;19921;-71
2024/03/21 06:00:26;;;;;;;;;;;6.70;99.90;;;;;;2068177;28;19949;-72
2024/03/21 06:01:32;;;;;;;;;;;6.80;99.90;;;;;;2059597;28;19957;-71
2024/03/21 06:02:33;;;;;;;;;;;6.80;99.90;;;;;;2060427;28;20004;-71
2024/03/21 06:03:34;;;;;;;;;;;6.80;99.90;;;;;;2058482;28;19914;-71